Flight Track Log - Related Links

Times and Time Zones

All times are in EDT time to prevent confusion due to time zone crossing. See the TYR843 flight status page for this flight to view local times or setup timezone preferences in your user account.

Time Position Orientation Groundspeed Altitude Reporting Facility
EDT Latitude Longitude Course Direction KTS MPH feet Rate Location/Type
Sun 05:39:00 PM 47.8126 16.7275 160° South  Level Estimated
Sun 05:40:00 PM 47.7133 16.7797 161° South  Level Estimated
Sun 05:41:00 PM 47.6140 16.8317 161° South  Level Estimated
Sun 05:42:00 PM 47.5146 16.8836 161° South  Level Estimated
Sun 05:43:00 PM 47.4153 16.9352 161° South  Level Estimated
Sun 05:44:00 PM 47.3159 16.9866 161° South  Level Estimated
Sun 05:45:00 PM 47.2165 17.0378 161° South  Level Estimated
Sun 05:46:00 PM 47.1171 17.0888 161° South  Level Estimated
Sun 05:47:00 PM 47.0176 17.1397 161° South  Level Estimated
Sun 05:48:00 PM 46.9182 17.1903 161° South  Level Estimated
Sun 05:49:00 PM 46.8187 17.2408 161° South  Level Estimated
Sun 05:50:00 PM 46.7192 17.2911 161° South  Level Estimated
Sun 05:51:00 PM 46.6196 17.3412 161° South  Level Estimated
Sun 05:52:00 PM 46.5201 17.3911 161° South  Level Estimated
Sun 05:53:00 PM 46.4205 17.4408 161° South  Level Estimated
Sun 05:54:00 PM 46.3209 17.4904 161° South  Level Estimated
Sun 05:55:00 PM 46.2213 17.5397 161° South  Level Estimated
Sun 05:56:00 PM 46.1216 17.5889 161° South  Level Estimated
Sun 05:57:00 PM 46.0220 17.6379 161° South  Level Estimated
Sun 05:58:00 PM 45.9223 17.6867 161° South  Level Estimated
Sun 05:59:00 PM 45.8226 17.7354 161° South  Level Estimated
Sun 06:00:00 PM 45.7229 17.7839 161° South  Level Estimated
Sun 06:01:00 PM 45.6231 17.8322 161° South  Level Estimated
Sun 06:02:00 PM 45.5233 17.8803 161° South  Level Estimated
Sun 06:03:00 PM 45.4235 17.9283 161° South  Level Estimated
Sun 06:04:00 PM 45.3237 17.9761 161° South  Level Estimated
Sun 06:05:00 PM 45.2239 18.0237 161° South  Level Estimated
Sun 06:06:00 PM 45.1241 18.0712 161° South  Level Estimated
Sun 06:07:00 PM 45.0242 18.1185 161° South  Level Estimated
Sun 06:08:00 PM 44.9243 18.1656 162° South  Level Estimated
Sun 06:09:00 PM 44.8244 18.2126 162° South  Level Estimated
Sun 06:10:00 PM 44.7245 18.2594 162° South  Level Estimated
Sun 06:11:00 PM 44.6245 18.3060 162° South  Level Estimated
Sun 06:12:00 PM 44.5246 18.3525 162° South  Level Estimated
Sun 06:13:00 PM 44.4246 18.3989 162° South  Level Estimated
Sun 06:14:00 PM 44.3246 18.4450 162° South  Level Estimated
Sun 06:15:00 PM 44.2246 18.4910 162° South  Level Estimated
Sun 06:16:00 PM 44.1245 18.5369 162° South  Level Estimated
Sun 06:17:00 PM 44.0245 18.5826 162° South  Level Estimated
Sun 06:18:00 PM 43.9244 18.6281 162° South  Level Estimated
Sun 06:19:00 PM 43.8243 18.6735 162° South  Level Estimated
Sun 06:20:00 PM 43.7242 18.7188 162° South  Level Estimated
Sun 06:21:00 PM 43.6241 18.7639 162° South  Level Estimated
Sun 06:22:00 PM 43.5239 18.8088 162° South  Level Estimated
Sun 06:23:00 PM 43.4238 18.8536 162° South  Level Estimated
Sun 06:24:00 PM 43.3236 18.8982 162° South  Level Estimated
Sun 06:25:00 PM 43.2234 18.9427 162° South  Level Estimated
Sun 06:26:00 PM 43.1232 18.9871 162° South  Level Estimated
Sun 06:27:00 PM 43.0230 19.0313 162° South  Level Estimated
Sun 06:28:00 PM 42.9227 19.0753 162° South  Level Estimated
Sun 06:29:00 PM 42.8225 19.1193 162° South  Level Estimated
Sun 06:30:00 PM 42.7222 19.1630 162° South  Level Estimated
Sun 06:31:00 PM 42.6219 19.2067 162° South  Level Estimated
Sun 06:32:00 PM 42.5216 19.2502 162° South  Level Estimated
Sun 06:33:00 PM 42.4212 19.2935 162° South  Level Estimated
Sun 06:34:00 PM 42.3209 19.3367 162° South  Level Estimated
Sun 06:35:00 PM 42.2205 19.3798 162° South  Level Estimated
Sun 06:36:00 PM 42.1202 19.4228 162° South  Level Estimated
Sun 06:37:00 PM 42.0197 19.4656 162° South  Level Estimated
Sun 06:38:00 PM 41.9193 19.5082 162° South  Level Estimated
Sun 06:39:00 PM 41.8189 19.5508 162° South  Level Estimated
Sun 06:40:00 PM 41.7185 19.5932 163° South  Level Estimated
Sun 06:41:00 PM 41.6180 19.6355 163° South  Level Estimated
Sun 06:42:00 PM 41.5175 19.6776 163° South  Level Estimated
Sun 06:43:00 PM 41.4170 19.7196 163° South  Level Estimated
Sun 06:44:00 PM 41.4147 19.7206 163° South  Level Estimated
Sun 06:45:00 PM 41.4147 19.7206 North  Level Estimated
Sun 06:46:00 PM 41.4147 19.7206 North  Level Estimated
Sun 06:47:00 PM 41.4147 19.7206 North  Level Estimated
Sun 06:48:00 PM 41.4147 19.7206 North  Level Estimated
Sun 06:49:00 PM 41.4147 19.7206 North  Level Estimated
Sun 06:50:00 PM 41.4147 19.7206 North  Level Estimated
Sun 06:51:00 PM 41.4147 19.7206 North  Level Estimated
Sun 06:52:00 PM 41.4147 19.7206 North  Level Estimated
Sun 06:53:00 PM 41.4147 19.7206 North  Level Estimated
Sun 06:54:00 PM 41.4147 19.7206 North  Level Estimated
Sun 06:55:00 PM 41.4147 19.7206 North  Level Estimated
Sun 06:56:00 PM 41.4147 19.7206 North  Level Estimated
Sun 06:57:00 PM 41.4147 19.7206 North  Level Estimated
Sun 06:58:00 PM 41.4147 19.7206 North  Level Estimated
Sun 06:59:00 PM 41.4147 19.7206 North  Level Estimated

Login

Don't have an account? Register now (free) for customized features, flight alerts, and more!